createdAt,value
2017-06-26T00:00:02.055Z,4.30
2017-06-26T00:02:28.498Z,4.30
2017-06-26T00:04:55.666Z,4.00
2017-06-26T00:07:22.851Z,4.20
2017-06-26T00:09:50.538Z,4.57
2017-06-26T00:12:16.944Z,3.97
2017-06-26T00:14:43.388Z,3.80
2017-06-26T00:17:10.451Z,4.35
2017-06-26T00:19:36.978Z,3.80
2017-06-26T00:22:03.401Z,3.93
2017-06-26T00:24:29.825Z,4.05
2017-06-26T00:26:56.257Z,4.00
2017-06-26T00:29:22.669Z,4.07
2017-06-26T00:31:49.461Z,3.70
2017-06-26T00:34:16.737Z,4.05
2017-06-26T00:36:43.187Z,4.07
2017-06-26T00:39:10.383Z,4.05
2017-06-26T00:41:36.925Z,3.70
2017-06-26T00:44:03.363Z,3.85
2017-06-26T00:46:30.573Z,3.73
2017-06-26T00:48:57.038Z,3.78
2017-06-26T00:51:23.482Z,3.60
2017-06-26T00:53:49.928Z,3.22
2017-06-26T00:56:16.370Z,3.40
2017-06-26T00:58:43.534Z,3.70
2017-06-26T01:01:10.982Z,3.57
2017-06-26T01:03:37.488Z,3.50
2017-06-26T01:06:03.914Z,3.40
2017-06-26T01:08:30.396Z,3.15
2017-06-26T01:10:57.129Z,3.10
2017-06-26T01:13:23.566Z,3.20
2017-06-26T01:15:49.992Z,3.00
2017-06-26T01:18:16.427Z,2.90
2017-06-26T01:20:42.851Z,3.03
2017-06-26T01:23:09.296Z,3.20
2017-06-26T01:25:35.797Z,3.00
2017-06-26T01:28:02.213Z,3.00
2017-06-26T01:30:28.689Z,2.85
2017-06-26T01:32:55.917Z,3.10
2017-06-26T01:35:22.402Z,3.30
2017-06-26T01:37:48.874Z,3.15
2017-06-26T01:40:16.055Z,3.23
2017-06-26T01:42:43.343Z,3.10
2017-06-26T01:45:09.899Z,3.30
2017-06-26T01:47:36.772Z,3.20
2017-06-26T01:50:03.195Z,3.20
2017-06-26T01:52:29.692Z,3.35
2017-06-26T01:55:11.016Z,3.30
2017-06-26T01:57:37.444Z,3.30
2017-06-26T02:00:03.900Z,3.30
2017-06-26T02:02:30.357Z,3.37
2017-06-26T02:04:57.406Z,3.50
2017-06-26T02:07:23.838Z,3.20
2017-06-26T02:09:51.005Z,3.43
2017-06-26T02:12:17.435Z,4.15
2017-06-26T02:14:43.865Z,4.03
2017-06-26T02:17:10.335Z,4.57
2017-06-26T02:19:36.785Z,4.60
2017-06-26T02:22:03.251Z,4.80
2017-06-26T02:24:29.675Z,5.28
2017-06-26T02:26:56.099Z,5.00
2017-06-26T02:29:23.395Z,5.10
2017-06-26T02:31:50.634Z,5.60
2017-06-26T02:34:17.057Z,4.80
2017-06-26T02:36:43.583Z,5.55
2017-06-26T02:39:10.549Z,5.43
2017-06-26T02:41:37.005Z,5.70
2017-06-26T02:44:03.424Z,5.45
2017-06-26T02:46:29.917Z,4.90
2017-06-26T02:48:57.090Z,5.57
2017-06-26T02:51:23.648Z,5.50
2017-06-26T02:53:50.209Z,5.00
2017-06-26T02:56:16.628Z,5.60
2017-06-26T02:58:43.083Z,5.60
2017-06-26T03:01:09.514Z,5.10
2017-06-26T03:03:35.935Z,5.12
2017-06-26T03:06:02.488Z,6.05
2017-06-26T03:08:28.957Z,5.10
2017-06-26T03:10:55.393Z,5.75
2017-06-26T03:13:22.567Z,5.20
2017-06-26T03:15:50.073Z,4.75
2017-06-26T03:18:16.521Z,5.00
2017-06-26T03:20:43.015Z,5.13
2017-06-26T03:23:09.523Z,4.90
2017-06-26T03:25:35.951Z,5.10
2017-06-26T03:28:02.435Z,4.70
2017-06-26T03:30:29.377Z,4.70
2017-06-26T03:32:55.809Z,5.00
2017-06-26T03:35:22.229Z,5.22
2017-06-26T03:37:48.652Z,4.80
2017-06-26T03:40:15.857Z,4.80
2017-06-26T03:42:42.293Z,8.02
2017-06-26T03:45:10.509Z,5.30
2017-06-26T03:47:36.938Z,5.57
2017-06-26T03:50:04.222Z,6.00
2017-06-26T03:52:31.445Z,5.30
2017-06-26T03:54:58.016Z,5.85
2017-06-26T03:57:24.512Z,6.43
2017-06-26T03:59:50.920Z,6.90
2017-06-26T04:02:17.335Z,7.30
2017-06-26T04:04:43.747Z,8.38
2017-06-26T04:07:10.178Z,8.80
2017-06-26T04:09:36.689Z,8.48
2017-06-26T04:12:03.198Z,9.00
2017-06-26T04:14:29.807Z,8.90
2017-06-26T04:16:56.365Z,8.45
2017-06-26T04:19:24.205Z,8.00
2017-06-26T04:21:50.666Z,7.07
2017-06-26T04:24:17.167Z,6.60
2017-06-26T04:26:43.611Z,6.25
2017-06-26T04:29:10.779Z,6.90
2017-06-26T04:31:37.975Z,6.47
2017-06-26T04:34:07.411Z,6.00
2017-06-26T04:36:33.848Z,5.97
2017-06-26T04:39:00.644Z,5.90
2017-06-26T04:41:27.076Z,4.80
2017-06-26T04:43:53.996Z,4.62
2017-06-26T04:46:20.470Z,4.10
2017-06-26T04:48:47.762Z,4.40
2017-06-26T04:51:14.232Z,3.90
2017-06-26T04:53:40.689Z,4.07
2017-06-26T04:56:07.110Z,4.05
2017-06-26T04:58:34.303Z,4.30
2017-06-26T05:01:00.762Z,4.80
2017-06-26T05:03:27.200Z,4.33
2017-06-26T05:05:54.363Z,4.75
2017-06-26T05:08:21.663Z,4.30
2017-06-26T05:10:48.099Z,4.30
2017-06-26T05:13:15.391Z,5.00
2017-06-26T05:15:41.800Z,4.47
2017-06-26T05:18:08.305Z,4.30
2017-06-26T05:20:35.120Z,4.50
2017-06-26T05:23:02.264Z,4.70
2017-06-26T05:25:28.709Z,4.10
2017-06-26T05:27:55.161Z,4.20
2017-06-26T05:30:21.641Z,4.50
2017-06-26T05:32:48.168Z,4.35
2017-06-26T05:35:14.724Z,4.65
2017-06-26T05:37:41.194Z,4.43
2017-06-26T05:40:07.769Z,4.40
2017-06-26T05:42:34.196Z,4.20
2017-06-26T05:45:00.755Z,4.00
2017-06-26T05:47:27.196Z,3.83
2017-06-26T05:50:09.032Z,4.20
2017-06-26T05:52:35.771Z,3.92
2017-06-26T05:55:02.250Z,3.92
2017-06-26T05:57:28.806Z,3.30
2017-06-26T05:59:55.297Z,3.70
2017-06-26T06:02:21.739Z,3.62
2017-06-26T06:04:48.209Z,3.53
2017-06-26T06:07:14.659Z,3.40
2017-06-26T06:09:41.171Z,3.50
2017-06-26T06:12:07.729Z,3.20
2017-06-26T06:14:49.430Z,3.97
2017-06-26T06:17:16.002Z,3.50
2017-06-26T06:19:42.440Z,3.73
2017-06-26T06:22:09.133Z,3.40
2017-06-26T06:24:35.607Z,3.80
2017-06-26T06:27:02.544Z,3.33
2017-06-26T06:29:29.000Z,3.60
2017-06-26T06:31:55.458Z,3.47
2017-06-26T06:34:21.914Z,3.25
2017-06-26T06:36:48.346Z,3.50
2017-06-26T06:39:14.801Z,3.50
2017-06-26T06:41:41.361Z,3.60
2017-06-26T06:44:07.811Z,3.30
2017-06-26T06:46:34.995Z,3.40
2017-06-26T06:49:01.452Z,3.60
2017-06-26T06:51:27.881Z,3.75
2017-06-26T06:53:55.557Z,3.17
2017-06-26T06:56:22.765Z,3.08
2017-06-26T06:58:49.271Z,3.30
2017-06-26T07:01:15.713Z,3.10
2017-06-26T07:03:42.651Z,3.03
2017-06-26T07:06:09.100Z,3.12
2017-06-26T07:08:35.561Z,3.53
2017-06-26T07:11:02.010Z,3.42
2017-06-26T07:13:28.569Z,3.30
2017-06-26T07:15:55.039Z,3.53
2017-06-26T07:18:21.488Z,3.60
2017-06-26T07:20:47.972Z,3.47
2017-06-26T07:23:14.840Z,3.08
2017-06-26T07:25:41.284Z,3.00
2017-06-26T07:28:07.726Z,3.30
2017-06-26T07:30:34.270Z,3.60
2017-06-26T07:33:00.828Z,3.95
2017-06-26T07:35:27.449Z,3.40
2017-06-26T07:37:53.945Z,3.10
2017-06-26T07:40:20.452Z,3.10
2017-06-26T07:42:47.080Z,3.27
2017-06-26T07:45:13.619Z,2.70
2017-06-26T07:47:40.179Z,3.00
2017-06-26T07:50:06.601Z,2.80
2017-06-26T07:52:33.400Z,2.95
2017-06-26T07:54:59.833Z,3.05
2017-06-26T07:57:26.999Z,3.30
2017-06-26T07:59:53.489Z,2.70
2017-06-26T08:02:19.964Z,2.90
2017-06-26T08:04:46.392Z,2.80
2017-06-26T08:07:12.857Z,2.67
2017-06-26T08:09:39.330Z,2.50
2017-06-26T08:12:05.925Z,2.50
2017-06-26T08:14:32.527Z,2.40
2017-06-26T08:16:59.466Z,2.40
2017-06-26T08:19:25.968Z,2.60
2017-06-26T08:21:52.432Z,2.40
2017-06-26T08:24:19.170Z,2.30
2017-06-26T08:26:45.831Z,2.50
2017-06-26T08:29:13.307Z,2.50
2017-06-26T08:31:40.203Z,2.42
2017-06-26T08:34:06.835Z,2.40
2017-06-26T08:36:34.338Z,2.60
2017-06-26T08:39:01.900Z,2.40
2017-06-26T08:41:29.735Z,2.20
2017-06-26T08:43:56.341Z,2.08
2017-06-26T08:46:22.903Z,2.20
2017-06-26T08:48:49.459Z,2.20
2017-06-26T08:51:16.017Z,2.00
2017-06-26T08:53:42.581Z,2.42
2017-06-26T08:56:09.237Z,2.60
2017-06-26T08:58:35.686Z,2.50
2017-06-26T09:01:02.967Z,2.50
2017-06-26T09:03:29.525Z,2.20
2017-06-26T09:05:55.984Z,2.45
2017-06-26T09:08:22.472Z,2.50
2017-06-26T09:10:49.002Z,2.40
2017-06-26T09:13:15.979Z,2.60
2017-06-26T09:15:42.458Z,2.60
2017-06-26T09:18:08.978Z,2.40
2017-06-26T09:20:35.422Z,2.42
2017-06-26T09:23:02.710Z,2.30
2017-06-26T09:25:29.245Z,2.40
2017-06-26T09:27:56.141Z,2.10
2017-06-26T09:30:22.695Z,2.30
2017-06-26T09:32:49.252Z,2.37
2017-06-26T09:35:15.736Z,2.00
2017-06-26T09:37:42.470Z,2.10
2017-06-26T09:40:08.899Z,2.40
2017-06-26T09:42:35.381Z,2.20
2017-06-26T09:45:02.458Z,2.60
2017-06-26T09:47:28.937Z,2.40
2017-06-26T09:49:55.405Z,2.60
2017-06-26T09:52:22.127Z,2.50
2017-06-26T09:54:49.403Z,2.37
2017-06-26T09:57:15.961Z,2.50
2017-06-26T09:59:42.518Z,2.53
2017-06-26T10:02:08.979Z,2.70
2017-06-26T10:04:35.431Z,2.50
2017-06-26T10:07:01.906Z,2.70
2017-06-26T10:09:28.336Z,2.45
2017-06-26T10:11:55.548Z,2.33
2017-06-26T10:14:22.333Z,2.30
2017-06-26T10:16:49.426Z,2.30
2017-06-26T10:19:16.215Z,2.40
2017-06-26T10:21:43.308Z,2.10
2017-06-26T10:24:10.148Z,2.17
2017-06-26T10:26:38.036Z,2.37
2017-06-26T10:29:04.493Z,2.37
2017-06-26T10:31:30.974Z,1.95
2017-06-26T10:33:57.917Z,2.30
2017-06-26T10:36:24.373Z,2.35
2017-06-26T10:38:50.931Z,2.60
2017-06-26T10:41:17.370Z,2.00
2017-06-26T10:43:44.579Z,2.40
2017-06-26T10:46:11.024Z,2.50
2017-06-26T10:48:37.548Z,2.70
2017-06-26T10:51:04.013Z,2.67
2017-06-26T10:53:30.425Z,2.47
2017-06-26T10:55:56.942Z,2.72
2017-06-26T10:58:23.380Z,2.70
2017-06-26T11:00:50.556Z,7.30
2017-06-26T11:03:18.072Z,2.67
2017-06-26T11:05:44.532Z,2.70
2017-06-26T11:08:11.000Z,2.85
2017-06-26T11:10:37.522Z,3.97
2017-06-26T11:13:03.983Z,4.60
2017-06-26T11:15:30.493Z,5.30
2017-06-26T11:17:56.971Z,5.45
2017-06-26T11:20:24.135Z,5.10
2017-06-26T11:22:50.603Z,5.62
2017-06-26T11:25:17.897Z,5.33
2017-06-26T11:27:44.555Z,6.03
2017-06-26T11:30:11.011Z,5.57
2017-06-26T11:32:37.449Z,5.80
2017-06-26T11:35:03.905Z,5.65
2017-06-26T11:37:31.101Z,5.50
2017-06-26T11:39:57.610Z,5.22
2017-06-26T11:42:24.058Z,5.53
2017-06-26T11:44:50.478Z,4.75
2017-06-26T11:49:52.882Z,5.20
2017-06-26T11:52:20.226Z,5.05
2017-06-26T11:54:46.668Z,5.30
2017-06-26T11:57:13.116Z,5.35
2017-06-26T11:59:39.556Z,4.95
2017-06-26T12:02:06.638Z,5.30
2017-06-26T12:04:33.074Z,5.40
2017-06-26T12:06:59.555Z,5.53
2017-06-26T12:09:26.071Z,5.40
2017-06-26T12:11:52.632Z,5.10
2017-06-26T12:14:19.073Z,5.45
2017-06-26T12:16:46.364Z,5.30
2017-06-26T12:19:12.919Z,4.80
2017-06-26T12:21:39.785Z,5.40
2017-06-26T12:24:06.349Z,4.97
2017-06-26T12:26:32.796Z,5.60
2017-06-26T12:28:59.985Z,5.40
2017-06-26T12:31:26.465Z,5.35
2017-06-26T12:33:52.928Z,5.37
2017-06-26T12:36:19.360Z,5.50
2017-06-26T12:38:45.790Z,5.12
2017-06-26T12:41:12.233Z,4.80
2017-06-26T12:43:40.052Z,4.70
2017-06-26T12:46:06.596Z,5.12
2017-06-26T12:48:33.024Z,4.50
2017-06-26T12:50:59.450Z,5.20
2017-06-26T12:53:25.966Z,5.00
2017-06-26T12:55:52.430Z,5.05
2017-06-26T12:58:19.848Z,4.90
2017-06-26T13:00:46.361Z,4.80
2017-06-26T13:03:13.172Z,5.60
2017-06-26T13:05:40.616Z,4.78
2017-06-26T13:08:07.163Z,5.12
2017-06-26T13:10:33.624Z,5.20
2017-06-26T13:13:00.581Z,5.50
2017-06-26T13:15:27.018Z,5.00
2017-06-26T13:17:54.315Z,5.30
2017-06-26T13:20:20.735Z,5.20
2017-06-26T13:22:47.157Z,4.90
2017-06-26T13:25:13.680Z,4.60
2017-06-26T13:27:40.106Z,4.57
2017-06-26T13:30:06.545Z,4.40
2017-06-26T13:32:34.040Z,4.87
2017-06-26T13:35:00.498Z,6.85
2017-06-26T13:37:26.902Z,4.25
2017-06-26T13:39:53.322Z,4.50
2017-06-26T13:42:20.576Z,4.80
2017-06-26T13:44:47.042Z,4.50
2017-06-26T13:47:13.490Z,4.20
2017-06-26T13:49:39.926Z,4.57
2017-06-26T13:52:06.348Z,4.73
2017-06-26T13:54:32.892Z,4.50
2017-06-26T13:56:59.657Z,4.32
2017-06-26T13:59:26.213Z,4.40
2017-06-26T14:02:07.582Z,4.68
2017-06-26T14:04:34.729Z,4.20
2017-06-26T14:07:01.178Z,4.47
2017-06-26T14:09:27.789Z,4.53
2017-06-26T14:11:54.249Z,4.45
2017-06-26T14:14:21.387Z,4.40
2017-06-26T14:16:48.080Z,3.95
2017-06-26T14:19:14.533Z,4.90
2017-06-26T14:21:41.077Z,4.00
2017-06-26T14:24:08.327Z,4.28
2017-06-26T14:26:34.926Z,4.32
2017-06-26T14:29:01.408Z,4.10
2017-06-26T14:31:27.881Z,4.85
2017-06-26T14:33:54.340Z,4.40
2017-06-26T14:36:20.854Z,5.10
2017-06-26T14:38:47.308Z,4.60
2017-06-26T14:41:13.830Z,4.83
2017-06-26T14:43:41.142Z,4.57
2017-06-26T14:46:07.578Z,4.70
2017-06-26T14:48:34.871Z,4.82
2017-06-26T14:51:01.842Z,5.32
2017-06-26T14:53:28.378Z,5.90
2017-06-26T14:55:55.943Z,5.22
2017-06-26T14:58:22.539Z,4.95
2017-06-26T15:00:49.096Z,5.00
2017-06-26T15:03:15.757Z,4.75
2017-06-26T15:05:42.315Z,5.55
2017-06-26T15:08:08.875Z,5.22
2017-06-26T15:10:35.517Z,5.40
2017-06-26T15:13:02.749Z,5.20
2017-06-26T15:15:29.574Z,4.93
2017-06-26T15:17:56.017Z,4.70
2017-06-26T15:20:23.233Z,4.53
2017-06-26T15:22:49.673Z,4.60
2017-06-26T15:25:16.215Z,4.00
2017-06-26T15:27:42.775Z,4.40
2017-06-26T15:30:09.241Z,4.60
2017-06-26T15:32:35.789Z,4.80
2017-06-26T15:35:02.230Z,4.95
2017-06-26T15:37:29.522Z,4.50
2017-06-26T15:39:56.000Z,4.68
2017-06-26T15:42:22.476Z,5.00
2017-06-26T15:44:49.102Z,4.68
2017-06-26T15:47:16.219Z,4.93
2017-06-26T15:49:43.482Z,5.10
2017-06-26T15:52:10.102Z,4.70
2017-06-26T15:54:36.537Z,4.72
2017-06-26T15:57:03.854Z,4.80
2017-06-26T15:59:30.394Z,4.80
2017-06-26T16:01:56.873Z,4.97
2017-06-26T16:04:23.507Z,4.72
2017-06-26T16:06:50.372Z,4.30
2017-06-26T16:09:17.038Z,5.30
2017-06-26T16:11:43.696Z,4.87
2017-06-26T16:14:12.117Z,4.40
2017-06-26T16:16:38.755Z,4.70
2017-06-26T16:19:05.316Z,4.60
2017-06-26T16:21:31.859Z,5.20
2017-06-26T16:23:59.129Z,4.90
2017-06-26T16:26:27.223Z,5.30
2017-06-26T16:28:54.512Z,5.28
2017-06-26T16:31:21.130Z,5.20
2017-06-26T16:33:48.543Z,5.47
2017-06-26T16:36:15.110Z,5.60
2017-06-26T16:38:41.656Z,5.10
2017-06-26T16:41:09.654Z,5.30
2017-06-26T16:43:36.212Z,4.80
2017-06-26T16:46:02.778Z,4.68
2017-06-26T16:48:29.436Z,5.07
2017-06-26T16:50:56.099Z,5.70
2017-06-26T16:53:23.270Z,5.50
2017-06-26T16:55:49.825Z,5.10
2017-06-26T16:58:16.383Z,5.20
2017-06-26T17:00:42.937Z,5.35
2017-06-26T17:03:09.411Z,5.10
2017-06-26T17:05:35.958Z,4.90
2017-06-26T17:08:02.618Z,5.45
2017-06-26T17:10:29.180Z,5.60
2017-06-26T17:12:56.347Z,5.37
2017-06-26T17:15:24.031Z,5.30
2017-06-26T17:17:50.574Z,5.65
2017-06-26T17:20:18.423Z,5.45
2017-06-26T17:22:45.039Z,6.12
2017-06-26T17:25:11.462Z,5.80
2017-06-26T17:27:38.256Z,6.20
2017-06-26T17:30:05.221Z,5.72
2017-06-26T17:32:32.705Z,6.30
2017-06-26T17:34:59.227Z,5.65
2017-06-26T17:37:25.759Z,5.50
2017-06-26T17:39:52.505Z,5.95
2017-06-26T17:42:19.038Z,6.70
2017-06-26T17:44:45.698Z,6.70
2017-06-26T17:47:12.227Z,6.20
2017-06-26T17:49:39.030Z,6.40
2017-06-26T17:52:05.682Z,7.03
2017-06-26T17:54:32.350Z,6.87
2017-06-26T17:56:59.010Z,6.80
2017-06-26T17:59:25.668Z,6.70
2017-06-26T18:01:52.327Z,7.20
2017-06-26T18:04:18.983Z,6.78
2017-06-26T18:06:45.546Z,7.00
2017-06-26T18:09:12.205Z,7.50
2017-06-26T18:11:38.767Z,6.80
2017-06-26T18:14:05.293Z,7.50
2017-06-26T18:16:32.033Z,7.30
2017-06-26T18:18:58.591Z,7.60
2017-06-26T18:21:25.176Z,7.70
2017-06-26T18:23:52.473Z,8.30
2017-06-26T18:26:19.122Z,7.93
2017-06-26T18:28:46.488Z,8.20
2017-06-26T18:31:12.990Z,8.20
2017-06-26T18:33:39.418Z,8.80
2017-06-26T18:36:06.806Z,8.57
2017-06-26T18:38:33.564Z,8.52
2017-06-26T18:41:00.228Z,8.30
2017-06-26T18:43:26.784Z,8.45
2017-06-26T18:45:53.341Z,9.25
2017-06-26T18:48:19.807Z,8.57
2017-06-26T18:50:47.377Z,9.07
2017-06-26T18:53:14.351Z,9.57
2017-06-26T18:55:41.123Z,9.00
2017-06-26T18:58:07.769Z,9.05
2017-06-26T19:00:34.436Z,9.15
2017-06-26T19:03:00.948Z,9.10
2017-06-26T19:05:27.656Z,9.05
2017-06-26T19:07:54.225Z,9.20
2017-06-26T19:10:20.857Z,9.52
2017-06-26T19:12:48.088Z,9.00
2017-06-26T19:15:14.702Z,9.52
2017-06-26T19:17:41.367Z,9.35
2017-06-26T19:20:08.431Z,9.52
2017-06-26T19:22:35.096Z,9.30
2017-06-26T19:25:02.166Z,9.40
2017-06-26T19:27:28.631Z,9.43
2017-06-26T19:29:55.282Z,9.20
2017-06-26T19:32:22.452Z,9.17
2017-06-26T19:34:49.083Z,9.50
2017-06-26T19:37:15.669Z,10.25
2017-06-26T19:39:42.229Z,10.93
2017-06-26T19:42:08.890Z,9.60
2017-06-26T19:44:35.858Z,9.88
2017-06-26T19:47:02.731Z,10.50
2017-06-26T19:49:29.390Z,8.95
2017-06-26T19:51:56.005Z,9.32
2017-06-26T19:54:22.568Z,8.80
2017-06-26T19:56:49.162Z,9.15
2017-06-26T19:59:15.629Z,9.03
2017-06-26T20:01:42.279Z,9.45
2017-06-26T20:04:08.789Z,10.67
2017-06-26T20:06:35.603Z,9.97
2017-06-26T20:09:02.191Z,10.60
2017-06-26T20:11:28.735Z,9.40
2017-06-26T20:13:55.380Z,9.35
2017-06-26T20:16:21.902Z,8.98
2017-06-26T20:20:55.914Z,9.40
2017-06-26T20:23:23.310Z,9.45
2017-06-26T20:25:49.866Z,9.20
2017-06-26T20:28:16.525Z,9.90
2017-06-26T20:30:43.083Z,9.80
2017-06-26T20:33:09.850Z,28.95
2017-06-26T20:35:36.507Z,15.80
2017-06-26T20:38:03.141Z,12.60
2017-06-26T20:40:30.548Z,11.35
2017-06-26T20:42:57.203Z,12.05
2017-06-26T20:45:23.867Z,10.88
2017-06-26T20:47:50.994Z,10.23
2017-06-26T20:50:17.597Z,10.20
2017-06-26T20:52:44.158Z,10.20
2017-06-26T20:55:10.819Z,10.88
2017-06-26T20:57:37.377Z,10.90
2017-06-26T21:00:03.890Z,10.48
2017-06-26T21:02:30.408Z,13.55
2017-06-26T21:04:56.950Z,15.75
2017-06-26T21:07:23.504Z,11.57
2017-06-26T21:09:50.171Z,11.30
2017-06-26T21:12:16.724Z,10.68
2017-06-26T21:14:43.798Z,11.53
2017-06-26T21:17:10.367Z,11.30
2017-06-26T21:19:37.016Z,11.60
2017-06-26T21:22:03.570Z,12.10
2017-06-26T21:24:30.849Z,11.32
2017-06-26T21:26:57.509Z,11.90
2017-06-26T21:29:24.066Z,11.80
2017-06-26T21:31:50.621Z,12.70
2017-06-26T21:34:17.139Z,12.35
2017-06-26T21:36:43.745Z,12.25
2017-06-26T21:39:10.275Z,12.50
2017-06-26T21:41:36.777Z,12.90
2017-06-26T21:44:03.246Z,13.10
2017-06-26T21:46:29.852Z,12.15
2017-06-26T21:48:57.061Z,12.27
2017-06-26T21:51:23.704Z,12.50
2017-06-26T21:53:50.266Z,12.37
2017-06-26T21:56:16.785Z,12.98
2017-06-26T21:58:43.810Z,13.00
2017-06-26T22:01:11.039Z,13.02
2017-06-26T22:03:38.341Z,13.13
2017-06-26T22:06:05.205Z,12.88
2017-06-26T22:08:32.332Z,12.98
2017-06-26T22:10:58.936Z,13.00
2017-06-26T22:13:26.314Z,13.52
2017-06-26T22:15:52.872Z,12.68
2017-06-26T22:18:19.430Z,13.18
2017-06-26T22:20:45.985Z,13.07
2017-06-26T22:23:12.554Z,13.15
2017-06-26T22:25:39.108Z,14.15
2017-06-26T22:28:06.375Z,13.88
2017-06-26T22:30:32.942Z,13.88
2017-06-26T22:32:59.493Z,14.40
2017-06-26T22:35:26.159Z,14.30
2017-06-26T22:37:52.717Z,14.30
2017-06-26T22:40:19.277Z,14.35
2017-06-26T22:42:45.831Z,13.93
2017-06-26T22:45:12.393Z,14.10
2017-06-26T22:47:39.767Z,14.20
2017-06-26T22:50:06.563Z,14.93
2017-06-26T22:52:33.048Z,13.95
2017-06-26T22:54:59.748Z,14.45
2017-06-26T22:57:26.310Z,14.90
2017-06-26T22:59:53.073Z,14.90
2017-06-26T23:02:19.633Z,14.07
2017-06-26T23:04:46.290Z,14.50
2017-06-26T23:07:12.852Z,14.60
2017-06-26T23:09:40.018Z,14.68
2017-06-26T23:12:06.546Z,15.60
2017-06-26T23:14:33.139Z,15.88
2017-06-26T23:16:59.804Z,15.82
2017-06-26T23:19:26.359Z,14.82
2017-06-26T23:21:52.872Z,15.18
2017-06-26T23:24:19.473Z,14.93
2017-06-26T23:26:46.104Z,15.25
2017-06-26T23:29:12.706Z,15.82
2017-06-26T23:31:39.254Z,16.50
2017-06-26T23:34:05.810Z,16.05
2017-06-26T23:36:32.439Z,15.27
2017-06-26T23:38:59.849Z,14.55
2017-06-26T23:41:26.341Z,14.70
2017-06-26T23:43:52.873Z,15.20
2017-06-26T23:46:19.523Z,14.80
2017-06-26T23:48:46.076Z,15.70
2017-06-26T23:51:12.625Z,15.63
2017-06-26T23:53:40.256Z,16.12
2017-06-26T23:56:06.762Z,16.00
2017-06-26T23:58:34.056Z,15.00
